aviador You're here:

ZBAA Decoded Metar

BEIJING in CHINA
Report Time2018-05-20 19:30:00
UTC Time2018-05-20 19:43:52
Flight Rules mvfr MVFR
Wind110° at 4 kt
W.Decomp.*RWY 18: 1.8 kt HW 3.6 kt LCW
RWY 19: 1.1 kt HW 3.8 kt LCW
W.Rank110° ranks 12
Current wind is below 110° avg. (4.5)
Visibility7000 m
Phenomena:N/A
Clouds:Scattered 026 Hf
Expected CloudBase > 1,600 ft AGL from Temp-Dew spread
CeilingNone
Temp17°C (ISA +2)
Dew Point13°C (77% RH)
AAT16.5°C
QNH1017 hPa
Density Alt423 ft
Elevation98 ft
Report Wrong Elevation
Raw Report
ZBAA 201930Z 11002MPS 070V130 7000 SCT026 17/13 Q1017 NOSIG=

Extra information for ZBAA:More info

Metar Taf Metar & Taf Last 4 Metars F.Rules Stats Wind Profile Meteogram Temp Stats Airport Information Weather charts Add Link Nearby VenuesMetar ALERT Operation Metar Decoded Social comments